sensor_id;sensor_type;location;lat;lon;timestamp;temperature;humidity
14378;DHT22;7272;53.668;9.578;2022-07-09T00:00:44;16.30;99.90
14378;DHT22;7272;53.668;9.578;2022-07-09T00:03:46;16.30;99.90
14378;DHT22;7272;53.668;9.578;2022-07-09T00:06:48;16.30;99.90
14378;DHT22;7272;53.668;9.578;2022-07-09T00:09:49;16.30;99.90
14378;DHT22;7272;53.668;9.578;2022-07-09T00:12:52;16.30;99.90
14378;DHT22;7272;53.668;9.578;2022-07-09T00:15:55;16.30;99.90
14378;DHT22;7272;53.668;9.578;2022-07-09T00:18:57;16.30;99.90
14378;DHT22;7272;53.668;9.578;2022-07-09T00:21:59;16.30;99.90
14378;DHT22;7272;53.668;9.578;2022-07-09T00:25:02;16.30;99.90
14378;DHT22;7272;53.668;9.578;2022-07-09T00:28:04;16.30;99.90
14378;DHT22;7272;53.668;9.578;2022-07-09T00:31:07;16.30;99.90
14378;DHT22;7272;53.668;9.578;2022-07-09T00:34:10;16.30;99.90
14378;DHT22;7272;53.668;9.578;2022-07-09T00:37:12;16.30;99.90
14378;DHT22;7272;53.668;9.578;2022-07-09T00:40:14;16.30;99.90
14378;DHT22;7272;53.668;9.578;2022-07-09T00:43:17;16.20;99.90
14378;DHT22;7272;53.668;9.578;2022-07-09T00:46:20;16.20;99.90
14378;DHT22;7272;53.668;9.578;2022-07-09T00:49:22;16.20;99.90
14378;DHT22;7272;53.668;9.578;2022-07-09T00:52:24;16.10;99.90
14378;DHT22;7272;53.668;9.578;2022-07-09T00:55:26;16.10;99.90
14378;DHT22;7272;53.668;9.578;2022-07-09T00:58:29;16.10;99.90
14378;DHT22;7272;53.668;9.578;2022-07-09T01:01:34;16.10;99.90
14378;DHT22;7272;53.668;9.578;2022-07-09T01:04:36;16.20;99.90
14378;DHT22;7272;53.668;9.578;2022-07-09T01:07:40;16.30;99.90
14378;DHT22;7272;53.668;9.578;2022-07-09T01:10:42;16.30;99.90
14378;DHT22;7272;53.668;9.578;2022-07-09T01:13:44;16.40;99.90
14378;DHT22;7272;53.668;9.578;2022-07-09T01:16:55;16.40;99.90
14378;DHT22;7272;53.668;9.578;2022-07-09T01:19:58;16.40;99.90
14378;DHT22;7272;53.668;9.578;2022-07-09T01:23:02;16.40;99.90
14378;DHT22;7272;53.668;9.578;2022-07-09T01:26:04;16.40;99.90
14378;DHT22;7272;53.668;9.578;2022-07-09T01:29:06;16.40;99.90
14378;DHT22;7272;53.668;9.578;2022-07-09T01:32:08;16.40;99.90
14378;DHT22;7272;53.668;9.578;2022-07-09T01:35:10;16.40;99.90
14378;DHT22;7272;53.668;9.578;2022-07-09T01:38:13;16.40;99.90
14378;DHT22;7272;53.668;9.578;2022-07-09T01:41:15;16.50;99.90
14378;DHT22;7272;53.668;9.578;2022-07-09T01:44:17;16.50;99.90
14378;DHT22;7272;53.668;9.578;2022-07-09T01:47:19;16.50;99.90
14378;DHT22;7272;53.668;9.578;2022-07-09T01:50:20;16.60;99.90
14378;DHT22;7272;53.668;9.578;2022-07-09T01:53:24;16.60;99.90
14378;DHT22;7272;53.668;9.578;2022-07-09T01:56:26;16.60;99.90
14378;DHT22;7272;53.668;9.578;2022-07-09T01:59:28;16.60;99.90
14378;DHT22;7272;53.668;9.578;2022-07-09T02:02:30;16.60;99.90
14378;DHT22;7272;53.668;9.578;2022-07-09T02:05:32;16.80;99.90
14378;DHT22;7272;53.668;9.578;2022-07-09T02:08:35;16.80;99.90
14378;DHT22;7272;53.668;9.578;2022-07-09T02:11:37;16.80;99.90
14378;DHT22;7272;53.668;9.578;2022-07-09T02:14:39;16.80;99.90
14378;DHT22;7272;53.668;9.578;2022-07-09T02:17:41;16.80;99.90
14378;DHT22;7272;53.668;9.578;2022-07-09T02:20:43;16.80;99.90
14378;DHT22;7272;53.668;9.578;2022-07-09T02:23:46;16.80;99.90
14378;DHT22;7272;53.668;9.578;2022-07-09T02:26:49;16.80;99.90
14378;DHT22;7272;53.668;9.578;2022-07-09T02:29:51;16.80;99.90
14378;DHT22;7272;53.668;9.578;2022-07-09T02:32:53;16.80;99.90
14378;DHT22;7272;53.668;9.578;2022-07-09T02:35:55;16.80;99.90
14378;DHT22;7272;53.668;9.578;2022-07-09T02:38:58;16.80;99.90
14378;DHT22;7272;53.668;9.578;2022-07-09T02:42:00;16.70;99.90
14378;DHT22;7272;53.668;9.578;2022-07-09T02:45:02;16.70;99.90
14378;DHT22;7272;53.668;9.578;2022-07-09T02:48:05;16.70;99.90
14378;DHT22;7272;53.668;9.578;2022-07-09T02:51:07;16.70;99.90
14378;DHT22;7272;53.668;9.578;2022-07-09T02:54:10;16.70;99.90
14378;DHT22;7272;53.668;9.578;2022-07-09T02:57:12;16.70;99.90
14378;DHT22;7272;53.668;9.578;2022-07-09T03:00:14;16.70;99.90
14378;DHT22;7272;53.668;9.578;2022-07-09T03:03:16;16.90;99.90
14378;DHT22;7272;53.668;9.578;2022-07-09T03:06:18;16.90;99.90
14378;DHT22;7272;53.668;9.578;2022-07-09T03:09:21;16.80;99.90
14378;DHT22;7272;53.668;9.578;2022-07-09T03:12:23;16.80;99.90
14378;DHT22;7272;53.668;9.578;2022-07-09T03:15:25;16.70;99.90
14378;DHT22;7272;53.668;9.578;2022-07-09T03:18:27;16.70;99.90
14378;DHT22;7272;53.668;9.578;2022-07-09T03:21:29;16.70;99.90
14378;DHT22;7272;53.668;9.578;2022-07-09T03:24:32;16.70;99.90
14378;DHT22;7272;53.668;9.578;2022-07-09T03:27:34;16.70;99.90
14378;DHT22;7272;53.668;9.578;2022-07-09T03:30:36;16.70;99.90
14378;DHT22;7272;53.668;9.578;2022-07-09T03:33:38;16.70;99.90
14378;DHT22;7272;53.668;9.578;2022-07-09T03:36:41;16.70;99.90
14378;DHT22;7272;53.668;9.578;2022-07-09T03:39:44;16.70;99.90
14378;DHT22;7272;53.668;9.578;2022-07-09T03:42:46;16.70;99.90
14378;DHT22;7272;53.668;9.578;2022-07-09T03:45:48;16.90;99.90
14378;DHT22;7272;53.668;9.578;2022-07-09T03:48:50;16.90;99.90
14378;DHT22;7272;53.668;9.578;2022-07-09T03:51:52;16.90;99.90
14378;DHT22;7272;53.668;9.578;2022-07-09T03:54:56;16.90;99.90
14378;DHT22;7272;53.668;9.578;2022-07-09T03:57:57;16.90;99.90
14378;DHT22;7272;53.668;9.578;2022-07-09T04:00:59;17.00;99.90
14378;DHT22;7272;53.668;9.578;2022-07-09T04:04:01;17.00;99.90
14378;DHT22;7272;53.668;9.578;2022-07-09T04:07:04;17.00;99.90
14378;DHT22;7272;53.668;9.578;2022-07-09T04:10:08;17.00;99.90
14378;DHT22;7272;53.668;9.578;2022-07-09T04:13:10;16.90;99.90
14378;DHT22;7272;53.668;9.578;2022-07-09T04:16:12;16.90;99.90
14378;DHT22;7272;53.668;9.578;2022-07-09T04:19:14;17.00;99.90
14378;DHT22;7272;53.668;9.578;2022-07-09T04:22:16;17.00;99.90
14378;DHT22;7272;53.668;9.578;2022-07-09T04:25:19;17.00;99.90
14378;DHT22;7272;53.668;9.578;2022-07-09T04:28:22;17.00;99.90
14378;DHT22;7272;53.668;9.578;2022-07-09T04:31:24;17.00;99.90
14378;DHT22;7272;53.668;9.578;2022-07-09T04:34:26;17.00;99.90
14378;DHT22;7272;53.668;9.578;2022-07-09T04:37:28;17.00;99.90
14378;DHT22;7272;53.668;9.578;2022-07-09T04:40:31;17.00;99.90
14378;DHT22;7272;53.668;9.578;2022-07-09T04:43:33;17.00;99.90
14378;DHT22;7272;53.668;9.578;2022-07-09T04:46:35;17.00;99.90
14378;DHT22;7272;53.668;9.578;2022-07-09T04:49:37;17.00;99.90
14378;DHT22;7272;53.668;9.578;2022-07-09T04:52:39;17.10;99.90
14378;DHT22;7272;53.668;9.578;2022-07-09T04:55:42;17.10;99.90
14378;DHT22;7272;53.668;9.578;2022-07-09T04:58:44;17.30;99.90
14378;DHT22;7272;53.668;9.578;2022-07-09T05:01:53;17.20;99.90
14378;DHT22;7272;53.668;9.578;2022-07-09T05:04:55;17.20;99.90
14378;DHT22;7272;53.668;9.578;2022-07-09T05:07:57;17.20;99.90
14378;DHT22;7272;53.668;9.578;2022-07-09T05:11:00;17.30;99.90
14378;DHT22;7272;53.668;9.578;2022-07-09T05:14:02;17.30;99.90
14378;DHT22;7272;53.668;9.578;2022-07-09T05:17:04;17.30;99.90
14378;DHT22;7272;53.668;9.578;2022-07-09T05:20:08;17.30;99.90
14378;DHT22;7272;53.668;9.578;2022-07-09T05:23:11;17.30;99.90
14378;DHT22;7272;53.668;9.578;2022-07-09T05:26:14;17.40;99.90
14378;DHT22;7272;53.668;9.578;2022-07-09T05:29:16;17.40;99.90
14378;DHT22;7272;53.668;9.578;2022-07-09T05:32:18;17.40;99.90
14378;DHT22;7272;53.668;9.578;2022-07-09T05:35:20;17.40;99.90
14378;DHT22;7272;53.668;9.578;2022-07-09T05:38:22;17.40;99.90
14378;DHT22;7272;53.668;9.578;2022-07-09T05:41:25;17.40;99.90
14378;DHT22;7272;53.668;9.578;2022-07-09T05:44:27;17.40;99.90
14378;DHT22;7272;53.668;9.578;2022-07-09T05:47:29;17.50;99.90
14378;DHT22;7272;53.668;9.578;2022-07-09T05:50:31;17.50;99.90
14378;DHT22;7272;53.668;9.578;2022-07-09T05:53:33;17.50;99.90
14378;DHT22;7272;53.668;9.578;2022-07-09T05:56:37;17.50;99.90
14378;DHT22;7272;53.668;9.578;2022-07-09T05:59:39;17.70;99.90
14378;DHT22;7272;53.668;9.578;2022-07-09T06:02:41;17.70;99.90
14378;DHT22;7272;53.668;9.578;2022-07-09T06:05:43;17.70;99.90
14378;DHT22;7272;53.668;9.578;2022-07-09T06:08:45;17.70;99.90
14378;DHT22;7272;53.668;9.578;2022-07-09T06:11:49;17.70;99.90
14378;DHT22;7272;53.668;9.578;2022-07-09T06:14:50;17.70;99.90
14378;DHT22;7272;53.668;9.578;2022-07-09T06:17:52;17.80;99.90
14378;DHT22;7272;53.668;9.578;2022-07-09T06:20:55;17.80;99.90
14378;DHT22;7272;53.668;9.578;2022-07-09T06:23:57;17.80;99.90
14378;DHT22;7272;53.668;9.578;2022-07-09T06:27:00;17.90;99.90
14378;DHT22;7272;53.668;9.578;2022-07-09T06:30:03;18.10;99.90
14378;DHT22;7272;53.668;9.578;2022-07-09T06:33:05;18.10;99.90
14378;DHT22;7272;53.668;9.578;2022-07-09T06:36:07;18.20;99.90
14378;DHT22;7272;53.668;9.578;2022-07-09T06:39:09;18.20;99.90
14378;DHT22;7272;53.668;9.578;2022-07-09T06:42:30;18.30;99.90
14378;DHT22;7272;53.668;9.578;2022-07-09T06:45:35;18.40;99.90
14378;DHT22;7272;53.668;9.578;2022-07-09T06:48:37;18.70;99.90
14378;DHT22;7272;53.668;9.578;2022-07-09T06:51:39;18.80;99.90
14378;DHT22;7272;53.668;9.578;2022-07-09T06:54:41;18.90;99.90
14378;DHT22;7272;53.668;9.578;2022-07-09T06:57:44;18.80;99.90
14378;DHT22;7272;53.668;9.578;2022-07-09T07:00:46;18.90;99.90
14378;DHT22;7272;53.668;9.578;2022-07-09T07:03:48;18.90;99.90
14378;DHT22;7272;53.668;9.578;2022-07-09T07:06:50;19.00;99.90
14378;DHT22;7272;53.668;9.578;2022-07-09T07:09:52;19.20;99.90
14378;DHT22;7272;53.668;9.578;2022-07-09T07:12:55;19.30;99.90
14378;DHT22;7272;53.668;9.578;2022-07-09T07:15:57;19.40;99.90
14378;DHT22;7272;53.668;9.578;2022-07-09T07:18:59;19.50;99.90
14378;DHT22;7272;53.668;9.578;2022-07-09T07:22:01;19.70;99.90
14378;DHT22;7272;53.668;9.578;2022-07-09T07:25:04;19.70;99.90
14378;DHT22;7272;53.668;9.578;2022-07-09T07:28:08;19.60;99.90
14378;DHT22;7272;53.668;9.578;2022-07-09T07:31:10;19.60;99.90
14378;DHT22;7272;53.668;9.578;2022-07-09T07:34:12;19.60;99.90
14378;DHT22;7272;53.668;9.578;2022-07-09T07:37:14;19.70;99.90
14378;DHT22;7272;53.668;9.578;2022-07-09T07:40:16;19.70;99.90
14378;DHT22;7272;53.668;9.578;2022-07-09T07:43:19;19.60;99.90
14378;DHT22;7272;53.668;9.578;2022-07-09T07:46:21;19.80;99.90
14378;DHT22;7272;53.668;9.578;2022-07-09T07:49:23;20.00;99.90
14378;DHT22;7272;53.668;9.578;2022-07-09T07:52:25;20.20;99.90
14378;DHT22;7272;53.668;9.578;2022-07-09T07:55:27;20.10;99.90
14378;DHT22;7272;53.668;9.578;2022-07-09T07:58:30;20.10;99.90
14378;DHT22;7272;53.668;9.578;2022-07-09T08:01:32;20.00;99.90
14378;DHT22;7272;53.668;9.578;2022-07-09T08:04:34;19.90;99.90
14378;DHT22;7272;53.668;9.578;2022-07-09T08:07:36;19.90;99.90
14378;DHT22;7272;53.668;9.578;2022-07-09T08:10:38;19.90;99.90
14378;DHT22;7272;53.668;9.578;2022-07-09T08:13:42;20.20;99.90
14378;DHT22;7272;53.668;9.578;2022-07-09T08:16:44;20.40;99.90
14378;DHT22;7272;53.668;9.578;2022-07-09T08:19:45;20.80;99.90
14378;DHT22;7272;53.668;9.578;2022-07-09T08:22:47;21.20;99.90
14378;DHT22;7272;53.668;9.578;2022-07-09T08:25:49;21.20;99.90
14378;DHT22;7272;53.668;9.578;2022-07-09T08:28:53;21.10;99.90
14378;DHT22;7272;53.668;9.578;2022-07-09T08:31:55;21.30;99.90
14378;DHT22;7272;53.668;9.578;2022-07-09T08:34:57;21.20;99.90
14378;DHT22;7272;53.668;9.578;2022-07-09T08:37:58;21.30;99.90
14378;DHT22;7272;53.668;9.578;2022-07-09T08:41:02;21.20;99.90
14378;DHT22;7272;53.668;9.578;2022-07-09T08:44:10;20.90;99.90
14378;DHT22;7272;53.668;9.578;2022-07-09T08:47:14;20.70;99.90
14378;DHT22;7272;53.668;9.578;2022-07-09T08:50:16;20.90;99.90
14378;DHT22;7272;53.668;9.578;2022-07-09T08:53:19;21.20;99.90
14378;DHT22;7272;53.668;9.578;2022-07-09T08:56:22;21.70;99.90
14378;DHT22;7272;53.668;9.578;2022-07-09T08:59:25;22.30;99.90
14378;DHT22;7272;53.668;9.578;2022-07-09T09:02:27;22.50;99.90
14378;DHT22;7272;53.668;9.578;2022-07-09T09:05:29;22.70;99.90
14378;DHT22;7272;53.668;9.578;2022-07-09T09:08:35;22.40;99.90
14378;DHT22;7272;53.668;9.578;2022-07-09T09:11:37;22.40;99.90
14378;DHT22;7272;53.668;9.578;2022-07-09T09:14:47;22.40;99.90
14378;DHT22;7272;53.668;9.578;2022-07-09T09:17:49;22.70;99.90
14378;DHT22;7272;53.668;9.578;2022-07-09T09:20:51;22.50;99.90
14378;DHT22;7272;53.668;9.578;2022-07-09T09:23:55;22.20;99.90
14378;DHT22;7272;53.668;9.578;2022-07-09T09:26:59;21.80;99.90
14378;DHT22;7272;53.668;9.578;2022-07-09T09:30:03;21.50;99.90
14378;DHT22;7272;53.668;9.578;2022-07-09T09:33:05;21.30;99.90
14378;DHT22;7272;53.668;9.578;2022-07-09T09:36:07;21.70;99.90
14378;DHT22;7272;53.668;9.578;2022-07-09T09:39:15;21.80;99.90
14378;DHT22;7272;53.668;9.578;2022-07-09T09:42:17;21.70;99.90
14378;DHT22;7272;53.668;9.578;2022-07-09T09:45:21;21.50;99.90
14378;DHT22;7272;53.668;9.578;2022-07-09T09:48:23;21.30;99.90
14378;DHT22;7272;53.668;9.578;2022-07-09T09:51:26;21.10;99.90
14378;DHT22;7272;53.668;9.578;2022-07-09T09:54:32;21.10;99.90
14378;DHT22;7272;53.668;9.578;2022-07-09T09:57:36;21.20;99.90
14378;DHT22;7272;53.668;9.578;2022-07-09T10:00:40;21.80;99.90
14378;DHT22;7272;53.668;9.578;2022-07-09T10:03:42;22.30;99.90
14378;DHT22;7272;53.668;9.578;2022-07-09T10:06:45;22.60;99.90
14378;DHT22;7272;53.668;9.578;2022-07-09T10:09:53;22.30;99.90
14378;DHT22;7272;53.668;9.578;2022-07-09T10:12:56;21.90;99.90
14378;DHT22;7272;53.668;9.578;2022-07-09T10:15:59;21.60;99.90
14378;DHT22;7272;53.668;9.578;2022-07-09T10:19:01;21.30;99.90
14378;DHT22;7272;53.668;9.578;2022-07-09T10:22:04;20.90;99.90
14378;DHT22;7272;53.668;9.578;2022-07-09T10:25:07;20.60;99.90
14378;DHT22;7272;53.668;9.578;2022-07-09T10:28:14;20.40;99.90
14378;DHT22;7272;53.668;9.578;2022-07-09T10:31:20;20.20;99.90
14378;DHT22;7272;53.668;9.578;2022-07-09T10:34:43;20.00;99.90
14378;DHT22;7272;53.668;9.578;2022-07-09T10:37:46;20.30;99.90
14378;DHT22;7272;53.668;9.578;2022-07-09T10:40:57;20.90;99.90
14378;DHT22;7272;53.668;9.578;2022-07-09T10:43:59;21.20;99.90
14378;DHT22;7272;53.668;9.578;2022-07-09T10:47:03;21.60;99.90
14378;DHT22;7272;53.668;9.578;2022-07-09T10:50:08;22.20;99.90
14378;DHT22;7272;53.668;9.578;2022-07-09T10:53:11;22.60;99.90
14378;DHT22;7272;53.668;9.578;2022-07-09T10:56:16;22.80;99.90
14378;DHT22;7272;53.668;9.578;2022-07-09T10:59:19;22.90;99.90
14378;DHT22;7272;53.668;9.578;2022-07-09T11:02:23;23.00;99.90
14378;DHT22;7272;53.668;9.578;2022-07-09T11:05:26;23.00;99.90
14378;DHT22;7272;53.668;9.578;2022-07-09T11:08:28;23.00;99.90
14378;DHT22;7272;53.668;9.578;2022-07-09T11:11:31;22.80;99.90
14378;DHT22;7272;53.668;9.578;2022-07-09T11:14:33;22.70;99.90
14378;DHT22;7272;53.668;9.578;2022-07-09T11:17:36;22.50;99.90
14378;DHT22;7272;53.668;9.578;2022-07-09T11:20:39;22.70;99.90
14378;DHT22;7272;53.668;9.578;2022-07-09T11:23:47;22.80;99.90
14378;DHT22;7272;53.668;9.578;2022-07-09T11:26:49;23.00;99.90
14378;DHT22;7272;53.668;9.578;2022-07-09T11:29:51;23.20;99.90
14378;DHT22;7272;53.668;9.578;2022-07-09T11:32:56;23.40;99.90
14378;DHT22;7272;53.668;9.578;2022-07-09T11:35:58;23.30;99.90
14378;DHT22;7272;53.668;9.578;2022-07-09T11:38:59;23.30;99.90
14378;DHT22;7272;53.668;9.578;2022-07-09T11:42:03;23.10;99.90
14378;DHT22;7272;53.668;9.578;2022-07-09T11:45:06;23.00;99.90
14378;DHT22;7272;53.668;9.578;2022-07-09T11:48:09;22.90;99.90
14378;DHT22;7272;53.668;9.578;2022-07-09T11:51:11;22.40;99.90
14378;DHT22;7272;53.668;9.578;2022-07-09T11:54:13;22.20;99.90
14378;DHT22;7272;53.668;9.578;2022-07-09T11:57:19;22.30;99.90
14378;DHT22;7272;53.668;9.578;2022-07-09T12:00:24;22.20;99.90
14378;DHT22;7272;53.668;9.578;2022-07-09T12:03:29;21.90;99.90
14378;DHT22;7272;53.668;9.578;2022-07-09T12:06:32;22.00;99.90
14378;DHT22;7272;53.668;9.578;2022-07-09T12:09:34;21.60;99.90
14378;DHT22;7272;53.668;9.578;2022-07-09T12:12:37;21.70;99.90
14378;DHT22;7272;53.668;9.578;2022-07-09T12:15:39;21.70;99.90
14378;DHT22;7272;53.668;9.578;2022-07-09T12:18:42;21.60;99.90
14378;DHT22;7272;53.668;9.578;2022-07-09T12:21:44;21.70;99.90
14378;DHT22;7272;53.668;9.578;2022-07-09T12:24:47;22.00;99.90
14378;DHT22;7272;53.668;9.578;2022-07-09T12:27:49;22.10;99.90
14378;DHT22;7272;53.668;9.578;2022-07-09T12:30:52;22.00;99.90
14378;DHT22;7272;53.668;9.578;2022-07-09T12:33:56;22.10;99.90
14378;DHT22;7272;53.668;9.578;2022-07-09T12:36:58;22.10;99.90
14378;DHT22;7272;53.668;9.578;2022-07-09T12:40:02;22.10;99.90
14378;DHT22;7272;53.668;9.578;2022-07-09T12:43:06;22.30;99.90
14378;DHT22;7272;53.668;9.578;2022-07-09T12:46:08;22.50;99.90
14378;DHT22;7272;53.668;9.578;2022-07-09T12:49:11;22.80;99.90
14378;DHT22;7272;53.668;9.578;2022-07-09T12:52:13;22.70;99.90
14378;DHT22;7272;53.668;9.578;2022-07-09T12:55:15;22.10;99.90
14378;DHT22;7272;53.668;9.578;2022-07-09T12:58:17;22.00;99.90
14378;DHT22;7272;53.668;9.578;2022-07-09T13:01:19;21.80;99.90
14378;DHT22;7272;53.668;9.578;2022-07-09T13:04:23;21.90;99.90
14378;DHT22;7272;53.668;9.578;2022-07-09T13:07:25;21.90;99.90
14378;DHT22;7272;53.668;9.578;2022-07-09T13:10:27;21.50;99.90
14378;DHT22;7272;53.668;9.578;2022-07-09T13:13:29;21.50;99.90
14378;DHT22;7272;53.668;9.578;2022-07-09T13:16:31;21.60;99.90
14378;DHT22;7272;53.668;9.578;2022-07-09T13:19:34;21.70;99.90
14378;DHT22;7272;53.668;9.578;2022-07-09T13:22:36;21.50;99.90
14378;DHT22;7272;53.668;9.578;2022-07-09T13:25:38;21.00;99.90
14378;DHT22;7272;53.668;9.578;2022-07-09T13:28:41;20.80;99.90
14378;DHT22;7272;53.668;9.578;2022-07-09T13:31:43;20.60;99.90
14378;DHT22;7272;53.668;9.578;2022-07-09T13:34:47;20.50;99.90
14378;DHT22;7272;53.668;9.578;2022-07-09T13:37:49;20.20;99.90
14378;DHT22;7272;53.668;9.578;2022-07-09T13:40:51;19.90;99.90
14378;DHT22;7272;53.668;9.578;2022-07-09T13:43:53;19.80;99.90
14378;DHT22;7272;53.668;9.578;2022-07-09T13:46:55;19.80;99.90
14378;DHT22;7272;53.668;9.578;2022-07-09T13:49:58;19.70;99.90
14378;DHT22;7272;53.668;9.578;2022-07-09T13:53:00;19.80;99.90
14378;DHT22;7272;53.668;9.578;2022-07-09T13:56:03;19.70;99.90
14378;DHT22;7272;53.668;9.578;2022-07-09T13:59:06;19.50;99.90
14378;DHT22;7272;53.668;9.578;2022-07-09T14:02:08;19.70;99.90
14378;DHT22;7272;53.668;9.578;2022-07-09T14:05:12;20.00;99.90
14378;DHT22;7272;53.668;9.578;2022-07-09T14:08:14;20.10;99.90
14378;DHT22;7272;53.668;9.578;2022-07-09T14:11:16;20.20;99.90
14378;DHT22;7272;53.668;9.578;2022-07-09T14:14:18;20.10;99.90
14378;DHT22;7272;53.668;9.578;2022-07-09T14:17:20;20.20;99.90
14378;DHT22;7272;53.668;9.578;2022-07-09T14:20:23;20.50;99.90
14378;DHT22;7272;53.668;9.578;2022-07-09T14:23:26;20.10;99.90
14378;DHT22;7272;53.668;9.578;2022-07-09T14:26:28;19.80;99.90
14378;DHT22;7272;53.668;9.578;2022-07-09T14:29:30;19.50;99.90
14378;DHT22;7272;53.668;9.578;2022-07-09T14:32:32;19.40;99.90
14378;DHT22;7272;53.668;9.578;2022-07-09T14:35:36;19.40;99.90
14378;DHT22;7272;53.668;9.578;2022-07-09T14:38:38;19.50;99.90
14378;DHT22;7272;53.668;9.578;2022-07-09T14:41:40;19.50;99.90
14378;DHT22;7272;53.668;9.578;2022-07-09T14:44:42;19.30;99.90
14378;DHT22;7272;53.668;9.578;2022-07-09T14:47:44;19.20;99.90
14378;DHT22;7272;53.668;9.578;2022-07-09T14:50:47;19.20;99.90
14378;DHT22;7272;53.668;9.578;2022-07-09T14:53:49;19.30;99.90
14378;DHT22;7272;53.668;9.578;2022-07-09T14:56:51;19.80;99.90
14378;DHT22;7272;53.668;9.578;2022-07-09T14:59:53;20.00;99.90
14378;DHT22;7272;53.668;9.578;2022-07-09T15:02:55;20.00;99.90
14378;DHT22;7272;53.668;9.578;2022-07-09T15:05:59;20.00;99.90
14378;DHT22;7272;53.668;9.578;2022-07-09T15:09:02;20.00;99.90
14378;DHT22;7272;53.668;9.578;2022-07-09T15:12:04;19.90;99.90
14378;DHT22;7272;53.668;9.578;2022-07-09T15:15:07;19.60;99.90
14378;DHT22;7272;53.668;9.578;2022-07-09T15:18:09;19.20;99.90
14378;DHT22;7272;53.668;9.578;2022-07-09T15:21:12;19.10;99.90
14378;DHT22;7272;53.668;9.578;2022-07-09T15:24:15;19.10;99.90
14378;DHT22;7272;53.668;9.578;2022-07-09T15:27:16;19.00;99.90
14378;DHT22;7272;53.668;9.578;2022-07-09T15:30:19;18.90;99.90
14378;DHT22;7272;53.668;9.578;2022-07-09T15:33:21;18.70;99.90
14378;DHT22;7272;53.668;9.578;2022-07-09T15:36:26;18.40;99.90
14378;DHT22;7272;53.668;9.578;2022-07-09T15:39:34;18.30;99.90
14378;DHT22;7272;53.668;9.578;2022-07-09T15:42:36;18.30;99.90
14378;DHT22;7272;53.668;9.578;2022-07-09T15:45:42;18.30;99.90
14378;DHT22;7272;53.668;9.578;2022-07-09T15:48:44;18.40;99.90
14378;DHT22;7272;53.668;9.578;2022-07-09T15:51:47;18.50;99.90
14378;DHT22;7272;53.668;9.578;2022-07-09T15:54:51;18.50;99.90
14378;DHT22;7272;53.668;9.578;2022-07-09T15:57:55;18.80;99.90
14378;DHT22;7272;53.668;9.578;2022-07-09T16:01:04;18.70;99.90
14378;DHT22;7272;53.668;9.578;2022-07-09T16:04:06;18.60;99.90
14378;DHT22;7272;53.668;9.578;2022-07-09T16:07:09;18.40;99.90
14378;DHT22;7272;53.668;9.578;2022-07-09T16:10:19;18.30;99.90
14378;DHT22;7272;53.668;9.578;2022-07-09T16:13:21;18.40;99.90
14378;DHT22;7272;53.668;9.578;2022-07-09T16:16:22;18.60;99.90
14378;DHT22;7272;53.668;9.578;2022-07-09T16:19:24;18.80;99.90
14378;DHT22;7272;53.668;9.578;2022-07-09T16:22:28;18.70;99.90
14378;DHT22;7272;53.668;9.578;2022-07-09T16:25:30;18.60;99.90
14378;DHT22;7272;53.668;9.578;2022-07-09T16:28:32;18.40;99.90
14378;DHT22;7272;53.668;9.578;2022-07-09T16:31:34;18.30;99.90
14378;DHT22;7272;53.668;9.578;2022-07-09T16:34:36;18.20;99.90
14378;DHT22;7272;53.668;9.578;2022-07-09T16:37:40;18.10;99.90
14378;DHT22;7272;53.668;9.578;2022-07-09T16:40:42;18.00;99.90
14378;DHT22;7272;53.668;9.578;2022-07-09T16:43:44;18.00;99.90
14378;DHT22;7272;53.668;9.578;2022-07-09T16:46:46;18.00;99.90
14378;DHT22;7272;53.668;9.578;2022-07-09T16:49:48;18.10;99.90
14378;DHT22;7272;53.668;9.578;2022-07-09T16:52:52;18.10;99.90
14378;DHT22;7272;53.668;9.578;2022-07-09T16:55:54;18.00;99.90
14378;DHT22;7272;53.668;9.578;2022-07-09T16:58:56;18.00;99.90
14378;DHT22;7272;53.668;9.578;2022-07-09T17:01:58;17.90;99.90
14378;DHT22;7272;53.668;9.578;2022-07-09T17:05:00;17.80;99.90
14378;DHT22;7272;53.668;9.578;2022-07-09T17:08:03;17.80;99.90
14378;DHT22;7272;53.668;9.578;2022-07-09T17:11:05;17.80;99.90
14378;DHT22;7272;53.668;9.578;2022-07-09T17:14:07;17.70;99.90
14378;DHT22;7272;53.668;9.578;2022-07-09T17:17:09;17.50;99.90
14378;DHT22;7272;53.668;9.578;2022-07-09T17:20:11;17.40;99.90
14378;DHT22;7272;53.668;9.578;2022-07-09T17:23:15;17.40;99.90
14378;DHT22;7272;53.668;9.578;2022-07-09T17:26:17;17.40;99.90
14378;DHT22;7272;53.668;9.578;2022-07-09T17:29:19;17.40;99.90
14378;DHT22;7272;53.668;9.578;2022-07-09T17:32:23;17.30;99.90
14378;DHT22;7272;53.668;9.578;2022-07-09T17:35:25;17.30;99.90
14378;DHT22;7272;53.668;9.578;2022-07-09T17:38:29;17.30;99.90
14378;DHT22;7272;53.668;9.578;2022-07-09T17:41:31;17.20;99.90
14378;DHT22;7272;53.668;9.578;2022-07-09T17:44:33;17.20;99.90
14378;DHT22;7272;53.668;9.578;2022-07-09T17:47:35;17.30;99.90
14378;DHT22;7272;53.668;9.578;2022-07-09T17:50:37;17.30;99.90
14378;DHT22;7272;53.668;9.578;2022-07-09T17:53:40;17.30;99.90
14378;DHT22;7272;53.668;9.578;2022-07-09T17:56:42;17.20;99.90
14378;DHT22;7272;53.668;9.578;2022-07-09T17:59:45;17.20;99.90
14378;DHT22;7272;53.668;9.578;2022-07-09T18:02:47;17.20;99.90
14378;DHT22;7272;53.668;9.578;2022-07-09T18:05:49;17.20;99.90
14378;DHT22;7272;53.668;9.578;2022-07-09T18:08:52;17.10;99.90
14378;DHT22;7272;53.668;9.578;2022-07-09T18:11:54;17.00;99.90
14378;DHT22;7272;53.668;9.578;2022-07-09T18:14:56;16.90;99.90
14378;DHT22;7272;53.668;9.578;2022-07-09T18:17:59;16.90;99.90
14378;DHT22;7272;53.668;9.578;2022-07-09T18:21:01;16.90;99.90
14378;DHT22;7272;53.668;9.578;2022-07-09T18:24:04;16.80;99.90
14378;DHT22;7272;53.668;9.578;2022-07-09T18:27:07;16.80;99.90
14378;DHT22;7272;53.668;9.578;2022-07-09T18:30:10;16.80;99.90
14378;DHT22;7272;53.668;9.578;2022-07-09T18:33:12;16.80;99.90
14378;DHT22;7272;53.668;9.578;2022-07-09T18:36:14;16.80;99.90
14378;DHT22;7272;53.668;9.578;2022-07-09T18:39:17;16.80;99.90
14378;DHT22;7272;53.668;9.578;2022-07-09T18:42:19;16.80;99.90
14378;DHT22;7272;53.668;9.578;2022-07-09T18:45:21;16.70;99.90
14378;DHT22;7272;53.668;9.578;2022-07-09T18:48:23;16.70;99.90
14378;DHT22;7272;53.668;9.578;2022-07-09T18:51:25;16.70;99.90
14378;DHT22;7272;53.668;9.578;2022-07-09T18:54:29;16.70;99.90
14378;DHT22;7272;53.668;9.578;2022-07-09T18:57:31;16.60;99.90
14378;DHT22;7272;53.668;9.578;2022-07-09T19:00:35;16.60;99.90
14378;DHT22;7272;53.668;9.578;2022-07-09T19:03:37;16.40;99.90
14378;DHT22;7272;53.668;9.578;2022-07-09T19:06:39;16.20;99.90
14378;DHT22;7272;53.668;9.578;2022-07-09T19:09:43;16.10;99.90
14378;DHT22;7272;53.668;9.578;2022-07-09T19:12:51;16.20;99.90
14378;DHT22;7272;53.668;9.578;2022-07-09T19:15:53;16.30;99.90
14378;DHT22;7272;53.668;9.578;2022-07-09T19:18:57;16.30;99.90
14378;DHT22;7272;53.668;9.578;2022-07-09T19:21:59;16.40;99.90
14378;DHT22;7272;53.668;9.578;2022-07-09T19:25:02;16.40;99.90
14378;DHT22;7272;53.668;9.578;2022-07-09T19:28:05;16.40;99.90
14378;DHT22;7272;53.668;9.578;2022-07-09T19:31:07;16.40;99.90